Eems Trader — V2DE3 — position and weather

sailwx.info

Track history (hours):
 
Tides and Currents Weather Stations Pressure Air Temp Water Temp Dewpoint Dewpoint Depression Visibility Wind Speed Wind Dir Waves Ship Positions

Eems Trader

Last reported at 2015-Jun-27 11:33 UTC. Time now 2015-Jun-30 19:43 UTC.
Position N 37°24' E 005°08'.

Length 89 m; draft 3.6 m.

Type: Cargo ship. MMSI: 305182000.

Date/timePositionNaut miles runAvg speedWind from/ knotsBaromVisibWave heightAir tempDewpointWater temp
2015-Jun-27 11:33N 37°24' E 005°08'8 7.9
2015-Jun-27 10:33N 37°32' E 005°08'8 8.2
2015-Jun-27 09:33N 37°40' E 005°08'8 8.4
2015-Jun-27 08:33N 37°48' E 005°08'9 8.5
2015-Jun-27 07:32N 37°57' E 005°07'9 8.8
2015-Jun-27 06:31N 38°06' E 005°07'20 9.0
2015-Jun-27 04:15N 38°26' E 005°07'9 9.3
2015-Jun-27 03:20N 38°35' E 005°07'16 9.1
2015-Jun-27 01:33N 38°51' E 005°06'10 9.0
2015-Jun-27 00:24N 39°02' E 005°06'18 8.6
2015-Jun-26 22:15N 39°20' E 005°06'6 8.5
2015-Jun-26 21:33N 39°26' E 005°06'9 8.7
2015-Jun-26 20:32N 39°35' E 005°06'8 8.5
2015-Jun-26 19:33N 39°43' E 005°05'9 8.6
2015-Jun-26 18:32N 39°52' E 005°05'93 9.1
2015-Jun-26 08:14N 41°25' E 005°03'6 9.1
2015-Jun-26 07:33N 41°32' E 005°03'10 9.1
2015-Jun-26 06:27N 41°42' E 005°03'9 9.1
2015-Jun-26 05:30N 41°50' E 005°03'9 8.9
2015-Jun-26 04:32N 41°59' E 005°03'9 8.9
2015-Jun-26 03:33N 42°08' E 005°02'9 8.8
2015-Jun-26 02:33N 42°16' E 005°03'9 8.7
2015-Jun-26 01:33N 42°25' E 005°02'9 8.6
2015-Jun-26 00:33N 42°34' E 005°02'9 8.6
2015-Jun-25 23:33N 42°42' E 005°02'9 8.5
2015-Jun-25 22:33N 42°51' E 005°01'8 8.5
2015-Jun-25 21:33N 42°59' E 005°01'9 8.9
2015-Jun-25 20:33N 43°08' E 005°01'9 8.9
2015-Jun-25 19:33N 43°17' E 004°59'8 7.8
2015-Jun-25 18:33N 43°24' E 004°53'3 3.2
2015-Jun-25 17:33N 43°23' E 004°49'8 7.4
2015-Jun-25 16:32N 43°30' E 004°44'9 8.3
2015-Jun-25 15:28N 43°38' E 004°38'5 1.6
2015-Jun-25 12:32N 43°42' E 004°37'0 0.0
2015-Jun-25 09:17N 43°42' E 004°37'0 0.0
2015-Jun-25 08:32N 43°42' E 004°37'0 0.0
2015-Jun-25 07:17N 43°42' E 004°37'0 0.0
2015-Jun-25 05:08N 43°42' E 004°37'0 0.0
2015-Jun-25 02:05N 43°42' E 004°37'0 0.0
2015-Jun-25 01:29N 43°42' E 004°37'0 0.0
2015-Jun-25 00:26N 43°42' E 004°37'0 0.0
2015-Jun-24 23:32N 43°42' E 004°37'0 0.0
2015-Jun-24 22:32N 43°42' E 004°37'0 0.0
2015-Jun-24 21:28N 43°42' E 004°37'0 0.0
2015-Jun-24 20:10N 43°42' E 004°37'0 0.0
2015-Jun-24 19:31N 43°42' E 004°37'0 0.0
2015-Jun-24 18:31N 43°42' E 004°37'0 0.0
2015-Jun-24 17:22N 43°42' E 004°37'0 0.0
2015-Jun-24 16:31N 43°42' E 004°37'0 0.0
2015-Jun-24 15:31N 43°42' E 004°37'0 0.0
2015-Jun-24 14:31N 43°42' E 004°37'0 0.0
2015-Jun-24 13:31N 43°42' E 004°37'0 0.0
2015-Jun-24 12:22N 43°42' E 004°37'0 0.0
2015-Jun-24 11:31N 43°42' E 004°37'0 0.0
2015-Jun-24 10:31N 43°42' E 004°37'0 0.0
2015-Jun-24 09:31N 43°42' E 004°37'0 0.0
2015-Jun-24 08:31N 43°42' E 004°37'0 0.0
2015-Jun-24 07:31N 43°42' E 004°37'2 0.3
2015-Jun-24 00:15N 43°40' E 004°36'5 6.0
2015-Jun-23 23:29N 43°36' E 004°39'7 7.2
2015-Jun-23 22:33N 43°30' E 004°44'7 7.0
2015-Jun-23 21:34N 43°24' E 004°47'3 2.6
2015-Jun-23 20:33N 43°23' E 004°50'7 6.9
2015-Jun-23 19:33N 43°20' E 004°59'3 7.4
2015-Jun-23 19:05N 43°17' E 005°01'187 8.0
2015-Jun-22 19:33N 40°44' E 002°34'9 8.9
2015-Jun-22 18:33N 40°37' E 002°27'9 8.8
2015-Jun-22 17:33N 40°30' E 002°21'9 8.6
2015-Jun-22 16:33N 40°23' E 002°14'9 8.8
2015-Jun-22 15:33N 40°17' E 002°06'9 9.0
2015-Jun-22 14:33N 40°10' E 001°58'9 8.8
2015-Jun-22 13:33N 40°03' E 001°51'8 8.5
2015-Jun-22 12:33N 39°56' E 001°45'9 9.0
2015-Jun-22 11:33N 39°48' E 001°39'19 9.2
2015-Jun-22 09:29N 39°33' E 001°24'81 8.9
2015-Jun-22 00:25N 38°28' E 000°22'9 8.6
2015-Jun-21 23:25N 38°21' E 000°15'12 9.0
2015-Jun-21 22:06N 38°12' E 000°07'5 8.9
2015-Jun-21 21:32N 38°08' E 000°03'8 8.6
2015-Jun-21 20:33N 38°01' W 000°04'12 8.9
2015-Jun-21 19:13N 37°52' W 000°13'8 9.0
2015-Jun-21 18:18N 37°45' W 000°19'7 8.7
2015-Jun-21 17:33N 37°40' W 000°24'9 8.7
2015-Jun-21 16:33N 37°33' W 000°31'8 8.3
2015-Jun-21 15:31N 37°27' W 000°39'8 8.3
2015-Jun-21 14:33N 37°22' W 000°46'8 8.4
2015-Jun-21 13:33N 37°16' W 000°54'8 8.3
2015-Jun-21 12:32N 37°11' W 001°02'8 8.2
2015-Jun-21 11:33N 37°05' W 001°10'203 8.7
2015-Jun-20 12:15N 35°60' W 005°09'7 9.6
2015-Jun-20 11:33N 35°59' W 005°18'1010.2
2015-Jun-20 10:33N 35°56' W 005°30'142 8.6
2015-Jun-19 18:05N 34°05' W 007°18'4 8.2
2015-Jun-19 17:33N 34°02' W 007°21'  
Track history (hours):
 
Tides and Currents Weather Stations Pressure Air Temp Water Temp Dewpoint Dewpoint Depression Visibility Wind Speed Wind Dir Waves Ship Positions

Eems Trader

Last reported at 2015-Jun-27 11:33 UTC. Time now 2015-Jun-30 19:43 UTC.
Position N 37°24' E 005°08'.

Length 89 m; draft 3.6 m.

Type: Cargo ship. MMSI: 305182000.

Date/timePositionNaut miles runAvg speedWind from/ knotsBaromVisibWave heightAir tempDewpointWater temp
2015-Jun-27 11:33N 37°24' E 005°08'8 7.9
2015-Jun-27 10:33N 37°32' E 005°08'8 8.2
2015-Jun-27 09:33N 37°40' E 005°08'8 8.4
2015-Jun-27 08:33N 37°48' E 005°08'9 8.5
2015-Jun-27 07:32N 37°57' E 005°07'9 8.8
2015-Jun-27 06:31N 38°06' E 005°07'20 9.0
2015-Jun-27 04:15N 38°26' E 005°07'9 9.3
2015-Jun-27 03:20N 38°35' E 005°07'16 9.1
2015-Jun-27 01:33N 38°51' E 005°06'10 9.0
2015-Jun-27 00:24N 39°02' E 005°06'18 8.6
2015-Jun-26 22:15N 39°20' E 005°06'6 8.5
2015-Jun-26 21:33N 39°26' E 005°06'9 8.7
2015-Jun-26 20:32N 39°35' E 005°06'8 8.5
2015-Jun-26 19:33N 39°43' E 005°05'9 8.6
2015-Jun-26 18:32N 39°52' E 005°05'93 9.1
2015-Jun-26 08:14N 41°25' E 005°03'6 9.1
2015-Jun-26 07:33N 41°32' E 005°03'10 9.1
2015-Jun-26 06:27N 41°42' E 005°03'9 9.1
2015-Jun-26 05:30N 41°50' E 005°03'9 8.9
2015-Jun-26 04:32N 41°59' E 005°03'9 8.9
2015-Jun-26 03:33N 42°08' E 005°02'9 8.8
2015-Jun-26 02:33N 42°16' E 005°03'9 8.7
2015-Jun-26 01:33N 42°25' E 005°02'9 8.6
2015-Jun-26 00:33N 42°34' E 005°02'9 8.6
2015-Jun-25 23:33N 42°42' E 005°02'9 8.5
2015-Jun-25 22:33N 42°51' E 005°01'8 8.5
2015-Jun-25 21:33N 42°59' E 005°01'9 8.9
2015-Jun-25 20:33N 43°08' E 005°01'9 8.9
2015-Jun-25 19:33N 43°17' E 004°59'8 7.8
2015-Jun-25 18:33N 43°24' E 004°53'3 3.2
2015-Jun-25 17:33N 43°23' E 004°49'8 7.4
2015-Jun-25 16:32N 43°30' E 004°44'9 8.3
2015-Jun-25 15:28N 43°38' E 004°38'5 1.6
2015-Jun-25 12:32N 43°42' E 004°37'0 0.0
2015-Jun-25 09:17N 43°42' E 004°37'0 0.0
2015-Jun-25 08:32N 43°42' E 004°37'0 0.0
2015-Jun-25 07:17N 43°42' E 004°37'0 0.0
2015-Jun-25 05:08N 43°42' E 004°37'0 0.0
2015-Jun-25 02:05N 43°42' E 004°37'0 0.0
2015-Jun-25 01:29N 43°42' E 004°37'0 0.0
2015-Jun-25 00:26N 43°42' E 004°37'0 0.0
2015-Jun-24 23:32N 43°42' E 004°37'0 0.0
2015-Jun-24 22:32N 43°42' E 004°37'0 0.0
2015-Jun-24 21:28N 43°42' E 004°37'0 0.0
2015-Jun-24 20:10N 43°42' E 004°37'0 0.0
2015-Jun-24 19:31N 43°42' E 004°37'0 0.0
2015-Jun-24 18:31N 43°42' E 004°37'0 0.0
2015-Jun-24 17:22N 43°42' E 004°37'0 0.0
2015-Jun-24 16:31N 43°42' E 004°37'0 0.0
2015-Jun-24 15:31N 43°42' E 004°37'0 0.0
2015-Jun-24 14:31N 43°42' E 004°37'0 0.0
2015-Jun-24 13:31N 43°42' E 004°37'0 0.0
2015-Jun-24 12:22N 43°42' E 004°37'0 0.0
2015-Jun-24 11:31N 43°42' E 004°37'0 0.0
2015-Jun-24 10:31N 43°42' E 004°37'0 0.0
2015-Jun-24 09:31N 43°42' E 004°37'0 0.0
2015-Jun-24 08:31N 43°42' E 004°37'0 0.0
2015-Jun-24 07:31N 43°42' E 004°37'2 0.3
2015-Jun-24 00:15N 43°40' E 004°36'5 6.0
2015-Jun-23 23:29N 43°36' E 004°39'7 7.2
2015-Jun-23 22:33N 43°30' E 004°44'7 7.0
2015-Jun-23 21:34N 43°24' E 004°47'3 2.6
2015-Jun-23 20:33N 43°23' E 004°50'7 6.9
2015-Jun-23 19:33N 43°20' E 004°59'3 7.4
2015-Jun-23 19:05N 43°17' E 005°01'187 8.0
2015-Jun-22 19:33N 40°44' E 002°34'9 8.9
2015-Jun-22 18:33N 40°37' E 002°27'9 8.8
2015-Jun-22 17:33N 40°30' E 002°21'9 8.6
2015-Jun-22 16:33N 40°23' E 002°14'9 8.8
2015-Jun-22 15:33N 40°17' E 002°06'9 9.0
2015-Jun-22 14:33N 40°10' E 001°58'9 8.8
2015-Jun-22 13:33N 40°03' E 001°51'8 8.5
2015-Jun-22 12:33N 39°56' E 001°45'9 9.0
2015-Jun-22 11:33N 39°48' E 001°39'19 9.2
2015-Jun-22 09:29N 39°33' E 001°24'81 8.9
2015-Jun-22 00:25N 38°28' E 000°22'9 8.6
2015-Jun-21 23:25N 38°21' E 000°15'12 9.0
2015-Jun-21 22:06N 38°12' E 000°07'5 8.9
2015-Jun-21 21:32N 38°08' E 000°03'8 8.6
2015-Jun-21 20:33N 38°01' W 000°04'12 8.9
2015-Jun-21 19:13N 37°52' W 000°13'8 9.0
2015-Jun-21 18:18N 37°45' W 000°19'7 8.7
2015-Jun-21 17:33N 37°40' W 000°24'9 8.7
2015-Jun-21 16:33N 37°33' W 000°31'8 8.3
2015-Jun-21 15:31N 37°27' W 000°39'8 8.3
2015-Jun-21 14:33N 37°22' W 000°46'8 8.4
2015-Jun-21 13:33N 37°16' W 000°54'8 8.3
2015-Jun-21 12:32N 37°11' W 001°02'8 8.2
2015-Jun-21 11:33N 37°05' W 001°10'203 8.7
2015-Jun-20 12:15N 35°60' W 005°09'7 9.6
2015-Jun-20 11:33N 35°59' W 005°18'1010.2
2015-Jun-20 10:33N 35°56' W 005°30'142 8.6
2015-Jun-19 18:05N 34°05' W 007°18'4 8.2
2015-Jun-19 17:33N 34°02' W 007°21'  

Dump ship's entire track history